sensor_id;sensor_type;location;lat;lon;timestamp;pressure;altitude;pressure_sealevel;temperature;humidity
29825;BME280;16713;52.916;12.834;2024-03-23T00:54:59;100197.19;;;7.64;77.01
29825;BME280;16713;52.916;12.834;2024-03-23T00:57:25;100196.00;;;7.65;76.14
29825;BME280;16713;52.916;12.834;2024-03-23T00:59:50;100200.41;;;7.70;75.57
29825;BME280;16713;52.916;12.834;2024-03-23T01:02:15;100197.22;;;7.68;75.77
29825;BME280;16713;52.916;12.834;2024-03-23T01:04:41;100191.69;;;7.64;76.14
29825;BME280;16713;52.916;12.834;2024-03-23T01:07:06;100179.06;;;7.60;76.87
29825;BME280;16713;52.916;12.834;2024-03-23T01:09:32;100169.72;;;7.61;76.91
29825;BME280;16713;52.916;12.834;2024-03-23T01:11:57;100173.22;;;7.61;76.76
29825;BME280;16713;52.916;12.834;2024-03-23T01:14:22;100170.56;;;7.65;75.54
29825;BME280;16713;52.916;12.834;2024-03-23T01:16:48;100178.28;;;7.59;76.64
29825;BME280;16713;52.916;12.834;2024-03-23T01:19:13;100175.47;;;7.56;77.15
29825;BME280;16713;52.916;12.834;2024-03-23T01:21:39;100163.38;;;7.57;76.56
29825;BME280;16713;52.916;12.834;2024-03-23T01:24:04;100154.66;;;7.51;77.31
29825;BME280;16713;52.916;12.834;2024-03-23T01:26:30;100154.50;;;7.63;76.75
29825;BME280;16713;52.916;12.834;2024-03-23T01:28:55;100152.50;;;7.60;77.07
29825;BME280;16713;52.916;12.834;2024-03-23T01:31:21;100147.38;;;7.59;76.34
29825;BME280;16713;52.916;12.834;2024-03-23T01:33:46;100142.56;;;7.52;75.69
29825;BME280;16713;52.916;12.834;2024-03-23T01:36:11;100136.66;;;7.50;76.62
29825;BME280;16713;52.916;12.834;2024-03-23T01:38:37;100135.91;;;7.53;76.46
29825;BME280;16713;52.916;12.834;2024-03-23T01:41:02;100125.41;;;7.55;76.52
29825;BME280;16713;52.916;12.834;2024-03-23T01:43:28;100117.63;;;7.57;77.36
29825;BME280;16713;52.916;12.834;2024-03-23T01:45:53;100122.31;;;7.57;77.26
29825;BME280;16713;52.916;12.834;2024-03-23T01:48:20;100110.59;;;7.56;76.96
29825;BME280;16713;52.916;12.834;2024-03-23T01:50:46;100108.63;;;7.57;76.91
29825;BME280;16713;52.916;12.834;2024-03-23T01:53:12;100105.97;;;7.60;77.01
29825;BME280;16713;52.916;12.834;2024-03-23T01:55:37;100100.47;;;7.60;76.08
29825;BME280;16713;52.916;12.834;2024-03-23T01:58:04;100098.41;;;7.54;77.20
29825;BME280;16713;52.916;12.834;2024-03-23T02:00:29;100103.59;;;7.59;75.62
29825;BME280;16713;52.916;12.834;2024-03-23T02:02:55;100097.59;;;7.53;75.98
29825;BME280;16713;52.916;12.834;2024-03-23T02:05:21;100101.66;;;7.59;76.88
29825;BME280;16713;52.916;12.834;2024-03-23T02:07:47;100085.97;;;7.56;76.56
29825;BME280;16713;52.916;12.834;2024-03-23T02:10:12;100077.78;;;7.60;77.02
29825;BME280;16713;52.916;12.834;2024-03-23T02:12:38;100076.50;;;7.54;76.04
29825;BME280;16713;52.916;12.834;2024-03-23T02:15:04;100084.00;;;7.57;76.63
29825;BME280;16713;52.916;12.834;2024-03-23T02:17:31;100078.16;;;7.58;76.57
29825;BME280;16713;52.916;12.834;2024-03-23T02:19:57;100075.00;;;7.56;76.27
29825;BME280;16713;52.916;12.834;2024-03-23T02:22:22;100077.00;;;7.59;76.49
29825;BME280;16713;52.916;12.834;2024-03-23T02:24:48;100061.31;;;7.56;76.44
29825;BME280;16713;52.916;12.834;2024-03-23T02:27:14;100065.91;;;7.52;76.10
29825;BME280;16713;52.916;12.834;2024-03-23T02:29:39;100058.16;;;7.54;76.51
29825;BME280;16713;52.916;12.834;2024-03-23T02:32:05;100064.06;;;7.56;76.97
29825;BME280;16713;52.916;12.834;2024-03-23T02:34:31;100059.66;;;7.52;75.74
29825;BME280;16713;52.916;12.834;2024-03-23T02:36:56;100060.16;;;7.57;76.99
29825;BME280;16713;52.916;12.834;2024-03-23T02:39:22;100054.97;;;7.52;76.22
29825;BME280;16713;52.916;12.834;2024-03-23T02:41:47;100047.56;;;7.53;75.86
29825;BME280;16713;52.916;12.834;2024-03-23T02:44:13;100048.41;;;7.57;77.14
29825;BME280;16713;52.916;12.834;2024-03-23T02:46:39;100047.56;;;7.53;76.40
29825;BME280;16713;52.916;12.834;2024-03-23T02:49:04;100045.19;;;7.51;76.68
29825;BME280;16713;52.916;12.834;2024-03-23T02:51:30;100039.72;;;7.51;76.71
29825;BME280;16713;52.916;12.834;2024-03-23T02:53:56;100032.59;;;7.47;75.75
29825;BME280;16713;52.916;12.834;2024-03-23T02:56:21;100024.03;;;7.48;76.10
29825;BME280;16713;52.916;12.834;2024-03-23T02:58:47;100032.72;;;7.54;76.76
29825;BME280;16713;52.916;12.834;2024-03-23T03:01:12;100032.66;;;7.50;77.12
29825;BME280;16713;52.916;12.834;2024-03-23T03:03:38;100032.53;;;7.43;75.97
29825;BME280;16713;52.916;12.834;2024-03-23T03:06:03;100019.97;;;7.42;75.66
29825;BME280;16713;52.916;12.834;2024-03-23T03:08:29;100011.28;;;7.37;75.79
29825;BME280;16713;52.916;12.834;2024-03-23T03:10:54;100010.50;;;7.36;76.21
29825;BME280;16713;52.916;12.834;2024-03-23T03:13:20;100015.31;;;7.43;76.33
29825;BME280;16713;52.916;12.834;2024-03-23T03:15:45;100013.84;;;7.49;76.07
29825;BME280;16713;52.916;12.834;2024-03-23T03:18:10;100018.97;;;7.50;75.39
29825;BME280;16713;52.916;12.834;2024-03-23T03:20:39;100005.16;;;7.43;75.77
29825;BME280;16713;52.916;12.834;2024-03-23T03:23:06;99995.06;;;7.47;75.54
29825;BME280;16713;52.916;12.834;2024-03-23T03:25:31;99998.47;;;7.41;75.81
29825;BME280;16713;52.916;12.834;2024-03-23T03:27:56;100003.28;;;7.47;77.04
29825;BME280;16713;52.916;12.834;2024-03-23T03:30:22;100010.63;;;7.43;76.54
29825;BME280;16713;52.916;12.834;2024-03-23T03:32:47;100004.72;;;7.41;76.73
29825;BME280;16713;52.916;12.834;2024-03-23T03:35:13;99997.69;;;7.40;75.62
29825;BME280;16713;52.916;12.834;2024-03-23T03:37:38;99996.44;;;7.38;76.52
29825;BME280;16713;52.916;12.834;2024-03-23T03:40:04;99994.22;;;7.43;76.11
29825;BME280;16713;52.916;12.834;2024-03-23T03:42:29;99997.25;;;7.38;77.13
29825;BME280;16713;52.916;12.834;2024-03-23T03:44:55;99991.84;;;7.42;76.31
29825;BME280;16713;52.916;12.834;2024-03-23T03:47:20;99985.75;;;7.52;76.16
29825;BME280;16713;52.916;12.834;2024-03-23T03:49:47;99988.38;;;7.45;76.48
29825;BME280;16713;52.916;12.834;2024-03-23T03:52:12;99986.00;;;7.43;76.05
29825;BME280;16713;52.916;12.834;2024-03-23T03:54:38;99978.94;;;7.42;76.21
29825;BME280;16713;52.916;12.834;2024-03-23T03:57:03;99982.41;;;7.39;76.66
29825;BME280;16713;52.916;12.834;2024-03-23T03:59:29;99970.72;;;7.42;76.72
29825;BME280;16713;52.916;12.834;2024-03-23T04:01:54;99967.50;;;7.37;76.35
29825;BME280;16713;52.916;12.834;2024-03-23T04:04:20;99970.63;;;7.35;76.51
29825;BME280;16713;52.916;12.834;2024-03-23T04:06:45;99972.47;;;7.31;76.85
29825;BME280;16713;52.916;12.834;2024-03-23T04:09:11;99970.44;;;7.28;77.52
29825;BME280;16713;52.916;12.834;2024-03-23T04:11:36;99970.38;;;7.24;76.59
29825;BME280;16713;52.916;12.834;2024-03-23T04:14:02;99962.16;;;7.24;77.36
29825;BME280;16713;52.916;12.834;2024-03-23T04:16:28;99954.31;;;7.23;76.43
29825;BME280;16713;52.916;12.834;2024-03-23T04:18:53;99958.66;;;7.24;76.88
29825;BME280;16713;52.916;12.834;2024-03-23T04:21:19;99955.50;;;7.22;76.37
29825;BME280;16713;52.916;12.834;2024-03-23T04:23:45;99952.31;;;7.20;77.67
29825;BME280;16713;52.916;12.834;2024-03-23T04:26:11;99953.47;;;7.19;75.94
29825;BME280;16713;52.916;12.834;2024-03-23T04:28:36;99946.00;;;7.16;75.82
29825;BME280;16713;52.916;12.834;2024-03-23T04:31:05;99947.72;;;7.24;77.67
29825;BME280;16713;52.916;12.834;2024-03-23T04:33:30;99943.75;;;7.21;76.83
29825;BME280;16713;52.916;12.834;2024-03-23T04:35:56;99938.28;;;7.21;76.51
29825;BME280;16713;52.916;12.834;2024-03-23T04:38:22;99941.09;;;7.25;77.02
29825;BME280;16713;52.916;12.834;2024-03-23T04:40:55;99939.00;;;7.18;76.68
29825;BME280;16713;52.916;12.834;2024-03-23T04:43:21;99930.88;;;7.22;75.51
29825;BME280;16713;52.916;12.834;2024-03-23T04:45:46;99929.72;;;7.23;75.71
29825;BME280;16713;52.916;12.834;2024-03-23T04:48:12;99919.06;;;7.18;76.31
29825;BME280;16713;52.916;12.834;2024-03-23T04:50:38;99926.59;;;7.24;75.91
29825;BME280;16713;52.916;12.834;2024-03-23T04:53:03;99924.38;;;7.30;76.30
29825;BME280;16713;52.916;12.834;2024-03-23T04:55:29;99934.88;;;7.28;76.30
29825;BME280;16713;52.916;12.834;2024-03-23T04:57:54;99932.06;;;7.24;75.61
29825;BME280;16713;52.916;12.834;2024-03-23T05:00:20;99932.56;;;7.30;75.40
29825;BME280;16713;52.916;12.834;2024-03-23T05:02:45;99931.66;;;7.22;75.59
29825;BME280;16713;52.916;12.834;2024-03-23T05:05:11;99926.91;;;7.19;76.08
29825;BME280;16713;52.916;12.834;2024-03-23T05:07:37;99929.03;;;7.29;75.70
29825;BME280;16713;52.916;12.834;2024-03-23T05:10:03;99925.47;;;7.25;75.74
29825;BME280;16713;52.916;12.834;2024-03-23T05:12:28;99924.09;;;7.35;74.52
29825;BME280;16713;52.916;12.834;2024-03-23T05:14:54;99935.31;;;7.30;74.76
29825;BME280;16713;52.916;12.834;2024-03-23T05:17:19;99927.94;;;7.31;74.09
29825;BME280;16713;52.916;12.834;2024-03-23T05:19:45;99930.97;;;7.29;74.18
29825;BME280;16713;52.916;12.834;2024-03-23T05:22:10;99927.47;;;7.28;74.93
29825;BME280;16713;52.916;12.834;2024-03-23T05:24:35;99927.03;;;7.26;73.46
29825;BME280;16713;52.916;12.834;2024-03-23T05:27:01;99936.41;;;7.25;73.19
29825;BME280;16713;52.916;12.834;2024-03-23T05:29:27;99941.16;;;7.28;73.51
29825;BME280;16713;52.916;12.834;2024-03-23T05:31:52;99932.94;;;7.28;71.37
29825;BME280;16713;52.916;12.834;2024-03-23T05:34:18;99932.16;;;7.28;71.22
29825;BME280;16713;52.916;12.834;2024-03-23T05:36:43;99931.25;;;7.20;70.96
29825;BME280;16713;52.916;12.834;2024-03-23T05:39:08;99930.72;;;7.15;71.07
29825;BME280;16713;52.916;12.834;2024-03-23T05:41:34;99931.03;;;7.10;69.84
29825;BME280;16713;52.916;12.834;2024-03-23T05:44:02;99923.06;;;7.01;71.66
29825;BME280;16713;52.916;12.834;2024-03-23T05:46:27;99926.75;;;6.90;70.49
29825;BME280;16713;52.916;12.834;2024-03-23T05:48:53;99921.56;;;6.85;70.35
29825;BME280;16713;52.916;12.834;2024-03-23T05:51:19;99925.88;;;6.86;70.28
29825;BME280;16713;52.916;12.834;2024-03-23T05:53:44;99922.75;;;6.84;70.35
29825;BME280;16713;52.916;12.834;2024-03-23T05:56:10;99920.56;;;6.93;70.57
29825;BME280;16713;52.916;12.834;2024-03-23T05:58:35;99918.13;;;6.88;70.33
29825;BME280;16713;52.916;12.834;2024-03-23T06:01:01;99916.84;;;6.82;70.14
29825;BME280;16713;52.916;12.834;2024-03-23T06:03:28;99915.81;;;6.90;71.16
29825;BME280;16713;52.916;12.834;2024-03-23T06:05:54;99910.72;;;6.88;69.65
29825;BME280;16713;52.916;12.834;2024-03-23T06:08:19;99918.91;;;6.88;70.23
29825;BME280;16713;52.916;12.834;2024-03-23T06:10:48;99911.00;;;6.83;70.91
29825;BME280;16713;52.916;12.834;2024-03-23T06:13:14;99902.94;;;6.90;69.30
29825;BME280;16713;52.916;12.834;2024-03-23T06:15:39;99913.38;;;6.85;68.26
29825;BME280;16713;52.916;12.834;2024-03-23T06:18:05;99897.41;;;6.87;69.37
29825;BME280;16713;52.916;12.834;2024-03-23T06:20:33;99896.53;;;6.83;70.02
29825;BME280;16713;52.916;12.834;2024-03-23T06:22:58;99900.44;;;6.82;68.64
29825;BME280;16713;52.916;12.834;2024-03-23T06:25:24;99900.78;;;6.80;69.53
29825;BME280;16713;52.916;12.834;2024-03-23T06:27:49;99896.53;;;6.83;68.79
29825;BME280;16713;52.916;12.834;2024-03-23T06:30:14;99903.09;;;6.78;69.58
29825;BME280;16713;52.916;12.834;2024-03-23T06:32:40;99899.91;;;6.76;69.40
29825;BME280;16713;52.916;12.834;2024-03-23T06:35:05;99902.28;;;6.78;70.25
29825;BME280;16713;52.916;12.834;2024-03-23T06:37:34;99898.28;;;6.72;68.25
29825;BME280;16713;52.916;12.834;2024-03-23T06:39:59;99907.03;;;6.81;69.10
29825;BME280;16713;52.916;12.834;2024-03-23T06:42:25;99907.41;;;6.79;69.19
29825;BME280;16713;52.916;12.834;2024-03-23T06:44:50;99905.75;;;6.75;69.76
29825;BME280;16713;52.916;12.834;2024-03-23T06:47:16;99908.63;;;6.82;69.31
29825;BME280;16713;52.916;12.834;2024-03-23T06:49:42;99903.00;;;6.75;68.42
29825;BME280;16713;52.916;12.834;2024-03-23T06:52:07;99914.69;;;6.72;68.09
29825;BME280;16713;52.916;12.834;2024-03-23T06:54:33;99905.75;;;6.75;68.44
29825;BME280;16713;52.916;12.834;2024-03-23T06:56:58;99899.56;;;6.78;67.59
29825;BME280;16713;52.916;12.834;2024-03-23T06:59:23;99892.94;;;6.79;68.13
29825;BME280;16713;52.916;12.834;2024-03-23T07:01:49;99885.97;;;6.62;68.37
29825;BME280;16713;52.916;12.834;2024-03-23T07:04:15;99881.97;;;6.56;68.32
29825;BME280;16713;52.916;12.834;2024-03-23T07:06:44;99886.28;;;6.57;68.42
29825;BME280;16713;52.916;12.834;2024-03-23T07:09:10;99890.88;;;6.53;69.32
29825;BME280;16713;52.916;12.834;2024-03-23T07:11:36;99893.66;;;6.57;68.46
29825;BME280;16713;52.916;12.834;2024-03-23T07:14:02;99885.06;;;6.55;68.45
29825;BME280;16713;52.916;12.834;2024-03-23T07:16:28;99881.44;;;6.51;67.84
29825;BME280;16713;52.916;12.834;2024-03-23T07:18:54;99873.25;;;6.51;66.88
29825;BME280;16713;52.916;12.834;2024-03-23T07:21:19;99866.50;;;6.45;68.08
29825;BME280;16713;52.916;12.834;2024-03-23T07:23:45;99860.16;;;6.41;68.28
29825;BME280;16713;52.916;12.834;2024-03-23T07:26:11;99864.06;;;6.40;67.43
29825;BME280;16713;52.916;12.834;2024-03-23T07:28:37;99868.31;;;6.37;68.21
29825;BME280;16713;52.916;12.834;2024-03-23T07:31:07;99871.53;;;6.43;68.57
29825;BME280;16713;52.916;12.834;2024-03-23T07:33:37;99867.16;;;6.38;68.09
29825;BME280;16713;52.916;12.834;2024-03-23T07:36:03;99875.50;;;6.45;67.13
29825;BME280;16713;52.916;12.834;2024-03-23T07:38:29;99884.63;;;6.53;67.76
29825;BME280;16713;52.916;12.834;2024-03-23T07:41:18;99875.22;;;6.50;66.59
29825;BME280;16713;52.916;12.834;2024-03-23T07:43:45;99887.06;;;6.58;67.59
29825;BME280;16713;52.916;12.834;2024-03-23T07:46:10;99893.34;;;6.58;66.89
29825;BME280;16713;52.916;12.834;2024-03-23T07:48:38;99892.53;;;6.58;66.97
29825;BME280;16713;52.916;12.834;2024-03-23T07:51:06;99891.38;;;6.59;68.05
29825;BME280;16713;52.916;12.834;2024-03-23T07:53:32;99885.63;;;6.64;68.45
29825;BME280;16713;52.916;12.834;2024-03-23T07:56:03;99888.28;;;6.60;67.53
29825;BME280;16713;52.916;12.834;2024-03-23T07:58:29;99889.88;;;6.61;69.52
29825;BME280;16713;52.916;12.834;2024-03-23T08:00:55;99888.00;;;6.65;69.49
29825;BME280;16713;52.916;12.834;2024-03-23T08:03:21;99869.28;;;6.67;67.48
29825;BME280;16713;52.916;12.834;2024-03-23T08:05:47;99874.31;;;6.65;68.94
29825;BME280;16713;52.916;12.834;2024-03-23T08:08:13;99881.66;;;6.80;67.89
29825;BME280;16713;52.916;12.834;2024-03-23T08:10:51;99879.56;;;6.74;67.07
29825;BME280;16713;52.916;12.834;2024-03-23T08:13:19;99883.59;;;6.80;68.58
29825;BME280;16713;52.916;12.834;2024-03-23T08:15:45;99863.84;;;6.67;67.62
29825;BME280;16713;52.916;12.834;2024-03-23T08:18:12;99859.88;;;6.65;68.44
29825;BME280;16713;52.916;12.834;2024-03-23T08:20:39;99854.09;;;6.70;69.18
29825;BME280;16713;52.916;12.834;2024-03-23T08:23:08;99852.09;;;6.67;69.74
29825;BME280;16713;52.916;12.834;2024-03-23T08:25:34;99862.81;;;6.75;68.88
29825;BME280;16713;52.916;12.834;2024-03-23T08:27:59;99854.09;;;6.70;69.08
29825;BME280;16713;52.916;12.834;2024-03-23T08:30:25;99861.47;;;6.66;70.72
29825;BME280;16713;52.916;12.834;2024-03-23T08:32:50;99856.84;;;6.70;71.01
29825;BME280;16713;52.916;12.834;2024-03-23T08:35:16;99856.00;;;6.66;71.04
29825;BME280;16713;52.916;12.834;2024-03-23T08:37:41;99853.38;;;6.73;71.18
29825;BME280;16713;52.916;12.834;2024-03-23T08:40:08;99855.81;;;6.78;71.67
29825;BME280;16713;52.916;12.834;2024-03-23T08:42:34;99848.50;;;6.82;70.63
29825;BME280;16713;52.916;12.834;2024-03-23T08:44:59;99841.94;;;6.86;71.46
29825;BME280;16713;52.916;12.834;2024-03-23T08:47:25;99843.94;;;6.89;70.58
29825;BME280;16713;52.916;12.834;2024-03-23T08:49:50;99841.19;;;6.89;71.48
29825;BME280;16713;52.916;12.834;2024-03-23T08:52:16;99833.06;;;6.93;70.23
29825;BME280;16713;52.916;12.834;2024-03-23T08:54:42;99837.00;;;6.95;70.10
29825;BME280;16713;52.916;12.834;2024-03-23T08:57:08;99834.63;;;6.94;69.62
29825;BME280;16713;52.916;12.834;2024-03-23T08:59:34;99820.19;;;6.93;70.57
29825;BME280;16713;52.916;12.834;2024-03-23T09:02:00;99818.97;;;6.91;70.68
29825;BME280;16713;52.916;12.834;2024-03-23T09:04:25;99823.66;;;6.90;70.71
29825;BME280;16713;52.916;12.834;2024-03-23T09:06:51;99827.53;;;6.89;70.78
29825;BME280;16713;52.916;12.834;2024-03-23T09:09:17;99820.78;;;6.83;70.66
29825;BME280;16713;52.916;12.834;2024-03-23T09:11:42;99816.53;;;6.86;70.49
29825;BME280;16713;52.916;12.834;2024-03-23T09:14:07;99817.16;;;6.98;71.44
29825;BME280;16713;52.916;12.834;2024-03-23T09:16:34;99820.91;;;6.90;70.97
29825;BME280;16713;52.916;12.834;2024-03-23T09:19:00;99824.44;;;6.91;69.91
29825;BME280;16713;52.916;12.834;2024-03-23T09:21:26;99821.47;;;6.99;70.56
29825;BME280;16713;52.916;12.834;2024-03-23T09:23:51;99823.69;;;6.94;69.75
29825;BME280;16713;52.916;12.834;2024-03-23T09:26:16;99824.56;;;6.98;71.27
29825;BME280;16713;52.916;12.834;2024-03-23T09:28:42;99823.41;;;6.99;71.87
29825;BME280;16713;52.916;12.834;2024-03-23T09:31:08;99821.94;;;7.05;71.77
29825;BME280;16713;52.916;12.834;2024-03-23T09:33:35;99824.56;;;7.20;69.58
29825;BME280;16713;52.916;12.834;2024-03-23T09:36:04;99812.88;;;7.23;68.91
29825;BME280;16713;52.916;12.834;2024-03-23T09:38:30;99807.84;;;7.25;69.60
29825;BME280;16713;52.916;12.834;2024-03-23T09:40:57;99819.91;;;7.24;70.13
29825;BME280;16713;52.916;12.834;2024-03-23T09:43:23;99828.19;;;7.28;69.70
29825;BME280;16713;52.916;12.834;2024-03-23T09:45:49;99847.06;;;7.33;70.45
29825;BME280;16713;52.916;12.834;2024-03-23T09:48:15;99838.84;;;7.33;70.65
29825;BME280;16713;52.916;12.834;2024-03-23T09:50:42;99830.56;;;7.29;69.66
29825;BME280;16713;52.916;12.834;2024-03-23T09:53:09;99830.50;;;7.26;69.40
29825;BME280;16713;52.916;12.834;2024-03-23T09:55:35;99831.16;;;7.42;68.98
29825;BME280;16713;52.916;12.834;2024-03-23T09:58:04;99827.59;;;7.38;68.15
29825;BME280;16713;52.916;12.834;2024-03-23T10:00:34;99825.19;;;7.33;68.34
29825;BME280;16713;52.916;12.834;2024-03-23T10:03:00;99814.22;;;7.33;69.57
29825;BME280;16713;52.916;12.834;2024-03-23T10:05:29;99817.47;;;7.39;69.05
29825;BME280;16713;52.916;12.834;2024-03-23T10:07:54;99826.88;;;7.41;69.93
29825;BME280;16713;52.916;12.834;2024-03-23T10:10:20;99821.50;;;7.48;68.66
29825;BME280;16713;52.916;12.834;2024-03-23T10:12:49;99820.34;;;7.49;66.83
29825;BME280;16713;52.916;12.834;2024-03-23T10:15:20;99821.88;;;7.47;66.70
29825;BME280;16713;52.916;12.834;2024-03-23T10:17:46;99819.84;;;7.44;67.11
29825;BME280;16713;52.916;12.834;2024-03-23T10:20:12;99822.97;;;7.42;69.26
29825;BME280;16713;52.916;12.834;2024-03-23T10:22:38;99828.94;;;7.48;68.02
29825;BME280;16713;52.916;12.834;2024-03-23T10:25:08;99832.03;;;7.46;67.23
29825;BME280;16713;52.916;12.834;2024-03-23T10:27:33;99831.53;;;7.41;67.65
29825;BME280;16713;52.916;12.834;2024-03-23T10:30:11;99833.59;;;7.47;68.46
29825;BME280;16713;52.916;12.834;2024-03-23T10:32:37;99837.28;;;7.58;66.71
29825;BME280;16713;52.916;12.834;2024-03-23T10:35:20;99835.19;;;7.48;66.44
29825;BME280;16713;52.916;12.834;2024-03-23T10:37:48;99845.09;;;7.56;66.37
29825;BME280;16713;52.916;12.834;2024-03-23T10:40:17;99845.56;;;7.62;67.08
29825;BME280;16713;52.916;12.834;2024-03-23T10:42:44;99840.31;;;7.53;66.54
29825;BME280;16713;52.916;12.834;2024-03-23T10:45:10;99852.13;;;7.57;64.37
29825;BME280;16713;52.916;12.834;2024-03-23T10:47:36;99848.66;;;7.60;64.11
29825;BME280;16713;52.916;12.834;2024-03-23T10:50:06;99855.38;;;7.63;64.93
29825;BME280;16713;52.916;12.834;2024-03-23T10:52:34;99856.19;;;7.67;64.66
29825;BME280;16713;52.916;12.834;2024-03-23T10:55:03;99862.53;;;7.71;65.19
29825;BME280;16713;52.916;12.834;2024-03-23T10:57:49;99871.13;;;7.73;65.04
29825;BME280;16713;52.916;12.834;2024-03-23T11:00:16;99865.28;;;7.74;64.54
29825;BME280;16713;52.916;12.834;2024-03-23T11:02:42;99865.94;;;7.64;65.41
29825;BME280;16713;52.916;12.834;2024-03-23T11:07:54;99887.75;;;7.83;62.97
29825;BME280;16713;52.916;12.834;2024-03-23T11:10:30;99876.41;;;7.85;63.21
29825;BME280;16713;52.916;12.834;2024-03-23T11:12:56;99883.94;;;7.91;63.20
29825;BME280;16713;52.916;12.834;2024-03-23T11:15:22;99883.94;;;7.91;62.87
29825;BME280;16713;52.916;12.834;2024-03-23T11:18:06;99878.88;;;7.93;61.45
29825;BME280;16713;52.916;12.834;2024-03-23T11:20:34;99879.25;;;7.92;62.14
29825;BME280;16713;52.916;12.834;2024-03-23T11:23:00;99881.56;;;7.90;61.68
29825;BME280;16713;52.916;12.834;2024-03-23T11:25:26;99886.41;;;8.00;61.40
29825;BME280;16713;52.916;12.834;2024-03-23T11:27:54;99886.44;;;8.03;62.61
29825;BME280;16713;52.916;12.834;2024-03-23T11:30:20;99891.94;;;8.03;62.60
29825;BME280;16713;52.916;12.834;2024-03-23T11:32:51;99879.41;;;8.02;61.04
29825;BME280;16713;52.916;12.834;2024-03-23T11:35:27;99889.66;;;8.09;61.35
29825;BME280;16713;52.916;12.834;2024-03-23T11:38:13;99882.22;;;8.09;60.28
29825;BME280;16713;52.916;12.834;2024-03-23T11:40:44;99893.59;;;8.11;60.42
29825;BME280;16713;52.916;12.834;2024-03-23T11:43:13;99886.19;;;8.12;60.43
29825;BME280;16713;52.916;12.834;2024-03-23T11:45:42;99884.09;;;8.02;60.71
29825;BME280;16713;52.916;12.834;2024-03-23T11:50:40;99893.59;;;8.11;61.76
29825;BME280;16713;52.916;12.834;2024-03-23T11:55:42;99881.81;;;8.07;59.78
29825;BME280;16713;52.916;12.834;2024-03-23T11:58:07;99881.81;;;8.07;59.82
29825;BME280;16713;52.916;12.834;2024-03-23T12:00:34;99875.19;;;8.08;59.72
29825;BME280;16713;52.916;12.834;2024-03-23T12:03:01;99876.28;;;8.04;60.58
29825;BME280;16713;52.916;12.834;2024-03-23T12:05:27;99881.41;;;8.05;60.97
29825;BME280;16713;52.916;12.834;2024-03-23T12:07:53;99881.81;;;8.07;59.14
29825;BME280;16713;52.916;12.834;2024-03-23T12:10:21;99880.75;;;8.15;59.55
29825;BME280;16713;52.916;12.834;2024-03-23T12:13:01;99882.66;;;8.11;60.14
29825;BME280;16713;52.916;12.834;2024-03-23T12:15:27;99879.59;;;8.16;60.01
29825;BME280;16713;52.916;12.834;2024-03-23T12:18:06;99888.25;;;8.18;59.75
29825;BME280;16713;52.916;12.834;2024-03-23T12:20:32;99875.72;;;8.21;59.18
29825;BME280;16713;52.916;12.834;2024-03-23T12:23:05;99883.91;;;8.17;59.12
29825;BME280;16713;52.916;12.834;2024-03-23T12:25:31;99881.16;;;8.17;59.38
29825;BME280;16713;52.916;12.834;2024-03-23T12:27:59;99874.91;;;8.17;60.00
29825;BME280;16713;52.916;12.834;2024-03-23T12:30:24;99884.38;;;8.23;60.65
29825;BME280;16713;52.916;12.834;2024-03-23T12:32:50;99867.00;;;8.12;60.74
29825;BME280;16713;52.916;12.834;2024-03-23T12:35:15;99874.97;;;8.20;60.58
29825;BME280;16713;52.916;12.834;2024-03-23T12:37:40;99866.25;;;8.15;60.31
29825;BME280;16713;52.916;12.834;2024-03-23T12:40:07;99871.38;;;8.16;61.66
29825;BME280;16713;52.916;12.834;2024-03-23T12:42:33;99878.09;;;8.22;61.06
29825;BME280;16713;52.916;12.834;2024-03-23T12:44:58;99885.22;;;8.27;61.65
29825;BME280;16713;52.916;12.834;2024-03-23T12:47:24;99879.78;;;8.30;60.25
29825;BME280;16713;52.916;12.834;2024-03-23T12:49:49;99882.50;;;8.30;60.69
29825;BME280;16713;52.916;12.834;2024-03-23T12:52:15;99896.50;;;8.22;61.60
29825;BME280;16713;52.916;12.834;2024-03-23T12:54:40;99902.31;;;8.17;60.99
29825;BME280;16713;52.916;12.834;2024-03-23T12:57:06;99901.50;;;7.87;59.09
29825;BME280;16713;52.916;12.834;2024-03-23T12:59:31;99904.72;;;7.70;61.24
29825;BME280;16713;52.916;12.834;2024-03-23T13:01:57;99919.38;;;7.32;60.73
29825;BME280;16713;52.916;12.834;2024-03-23T13:04:23;99930.44;;;7.20;61.22
29825;BME280;16713;52.916;12.834;2024-03-23T13:06:48;99947.28;;;7.22;62.47
29825;BME280;16713;52.916;12.834;2024-03-23T13:09:14;99953.34;;;7.31;62.05
29825;BME280;16713;52.916;12.834;2024-03-23T13:11:39;99957.25;;;7.11;63.41
29825;BME280;16713;52.916;12.834;2024-03-23T13:14:04;99919.03;;;6.95;64.57
29825;BME280;16713;52.916;12.834;2024-03-23T13:16:30;99888.50;;;6.71;65.87
29825;BME280;16713;52.916;12.834;2024-03-23T13:18:56;99900.72;;;6.58;67.04
29825;BME280;16713;52.916;12.834;2024-03-23T13:21:21;99884.53;;;6.49;67.27
29825;BME280;16713;52.916;12.834;2024-03-23T13:23:47;99878.16;;;6.42;66.41
29825;BME280;16713;52.916;12.834;2024-03-23T13:26:14;99867.22;;;6.42;67.68
29825;BME280;16713;52.916;12.834;2024-03-23T13:28:40;99863.50;;;6.50;68.13
29825;BME280;16713;52.916;12.834;2024-03-23T13:31:06;99864.34;;;6.54;67.04
29825;BME280;16713;52.916;12.834;2024-03-23T13:33:34;99862.75;;;6.53;68.38
29825;BME280;16713;52.916;12.834;2024-03-23T13:35:59;99851.91;;;6.56;68.10
29825;BME280;16713;52.916;12.834;2024-03-23T13:38:25;99844.47;;;6.57;69.23
29825;BME280;16713;52.916;12.834;2024-03-23T13:41:01;99849.38;;;6.67;68.46
29825;BME280;16713;52.916;12.834;2024-03-23T13:43:27;99839.00;;;6.76;69.22
29825;BME280;16713;52.916;12.834;2024-03-23T13:45:54;99834.03;;;6.81;67.27
29825;BME280;16713;52.916;12.834;2024-03-23T13:48:21;99835.66;;;6.86;66.86
29825;BME280;16713;52.916;12.834;2024-03-23T13:50:47;99838.59;;;6.96;68.51
29825;BME280;16713;52.916;12.834;2024-03-23T13:53:15;99839.50;;;7.04;66.87
29825;BME280;16713;52.916;12.834;2024-03-23T13:55:47;99834.56;;;7.13;67.10